Time;durP1;ratioP1;P1;durP2;ratioP2;P2;SDS_P1;SDS_P2;PMS_P1;PMS_P2;Temp;Humidity;BMP_temperature;BMP_pressure;BME280_temperature;BME280_humidity;BME280_pressure;Samples;Min_cycle;Max_cycle;Signal;HPM_P1;HPM_P2
2023/10/04 00:00:19;;;;;;;0.85;0.60;;;13.30;90.00;;;;;;4739837;30;20052;-76
2023/10/04 00:02:50;;;;;;;0.93;0.60;;;13.30;90.00;;;;;;4739279;29;20051;-78
2023/10/04 00:05:17;;;;;;;0.47;0.40;;;13.30;90.10;;;;;;4764034;29;20043;-77
2023/10/04 00:07:49;;;;;;;0.65;0.50;;;13.30;90.00;;;;;;4793273;29;20157;-78
2023/10/04 00:10:17;;;;;;;0.93;0.50;;;13.30;90.00;;;;;;4777497;29;20123;-78
2023/10/04 00:12:47;;;;;;;0.55;0.47;;;13.20;90.00;;;;;;4793293;29;20046;-78
2023/10/04 00:15:14;;;;;;;1.35;0.60;;;13.30;90.10;;;;;;4776327;29;20074;-79
2023/10/04 00:17:42;;;;;;;0.85;0.47;;;13.30;90.40;;;;;;4808803;29;20501;-78
2023/10/04 00:20:10;;;;;;;1.38;0.60;;;13.20;90.00;;;;;;4808543;29;20045;-79
2023/10/04 00:22:39;;;;;;;0.80;0.47;;;13.30;90.10;;;;;;4807954;29;20050;-78
2023/10/04 00:25:06;;;;;;;0.52;0.50;;;13.20;90.10;;;;;;4793289;29;20133;-78
2023/10/04 00:27:32;;;;;;;0.77;0.40;;;13.20;90.10;;;;;;4808080;29;20401;-78
2023/10/04 00:29:57;;;;;;;1.05;0.57;;;13.20;90.10;;;;;;4792146;29;20136;-78
2023/10/04 00:32:23;;;;;;;0.98;0.60;;;13.20;90.10;;;;;;4825004;29;20137;-78
2023/10/04 00:35:17;;;;;;;0.88;0.60;;;13.20;90.10;;;;;;4792694;29;20038;-79
2023/10/04 00:37:50;;;;;;;0.85;0.60;;;13.40;90.20;;;;;;4823322;29;20490;-78
2023/10/04 00:40:21;;;;;;;0.93;0.60;;;13.20;90.10;;;;;;4807629;29;20046;-78
2023/10/04 00:42:49;;;;;;;0.98;0.55;;;13.20;90.10;;;;;;4807071;29;20107;-78
2023/10/04 00:45:22;;;;;;;1.10;0.60;;;13.30;90.20;;;;;;4806743;29;20050;-77
2023/10/04 00:47:51;;;;;;;0.40;0.40;;;13.30;90.20;;;;;;4806537;29;20042;-77
2023/10/04 00:50:22;;;;;;;0.85;0.50;;;13.20;90.10;;;;;;4791369;29;20092;-78
2023/10/04 00:52:57;;;;;;;0.70;0.50;;;13.20;90.20;;;;;;4824428;29;20073;-78
2023/10/04 00:55:23;;;;;;;0.95;0.50;;;13.20;90.20;;;;;;4792709;29;20043;-78
2023/10/04 00:57:53;;;;;;;1.10;0.60;;;13.20;90.20;;;;;;4808440;29;20053;-77
2023/10/04 01:07:44;;;;;;;0.70;0.50;;;13.30;90.10;;;;;;4822923;29;20149;-78
2023/10/04 01:10:14;;;;;;;0.82;0.50;;;13.20;90.10;;;;;;4807795;29;20430;-78
2023/10/04 01:12:42;;;;;;;0.67;0.40;;;13.20;90.10;;;;;;4808312;29;20125;-78
2023/10/04 01:17:48;;;;;;;0.95;0.50;;;13.20;90.10;;;;;;4823847;29;20047;-77
2023/10/04 01:20:13;;;;;;;0.82;0.60;;;13.20;90.20;;;;;;4807418;29;20049;-77
2023/10/04 01:22:39;;;;;;;0.98;0.68;;;13.20;90.20;;;;;;4823885;29;20480;-77
2023/10/04 01:25:06;;;;;;;0.47;0.30;;;13.20;90.20;;;;;;4806961;29;20054;-77
2023/10/04 01:27:31;;;;;;;1.77;0.40;;;13.20;90.20;;;;;;4792116;29;20042;-77
2023/10/04 01:29:57;;;;;;;2.10;0.68;;;13.20;90.20;;;;;;4806967;29;20112;-77
2023/10/04 01:32:23;;;;;;;0.93;0.45;;;13.10;90.20;;;;;;4807463;29;20061;-77
2023/10/04 01:34:49;;;;;;;0.93;0.50;;;13.20;90.20;;;;;;4751738;30;20105;-77
2023/10/04 01:37:39;;;;;;;1.88;0.50;;;13.20;90.20;;;;;;4752184;30;20424;-76
2023/10/04 01:40:12;;;;;;;1.50;0.68;;;13.10;90.20;;;;;;4767113;30;20143;-77
2023/10/04 01:42:40;;;;;;;1.73;0.60;;;13.20;90.20;;;;;;4753503;30;20110;-77
2023/10/04 01:45:11;;;;;;;0.93;0.50;;;13.10;90.20;;;;;;4752219;30;20051;-77
2023/10/04 01:47:38;;;;;;;1.02;0.70;;;13.20;90.30;;;;;;4753335;30;20056;-77
2023/10/04 01:50:06;;;;;;;1.48;0.70;;;13.10;90.30;;;;;;4752605;30;20109;-77
2023/10/04 01:52:32;;;;;;;0.70;0.45;;;13.10;90.30;;;;;;4767305;30;20050;-77
2023/10/04 01:54:58;;;;;;;0.85;0.50;;;13.10;90.30;;;;;;4752359;30;20035;-76
2023/10/04 01:57:26;;;;;;;1.73;0.60;;;13.10;90.30;;;;;;4752633;30;20055;-76
2023/10/04 01:59:54;;;;;;;0.93;0.60;;;13.20;90.30;;;;;;4752507;30;20048;-77
2023/10/04 02:02:21;;;;;;;0.90;0.50;;;13.10;90.30;;;;;;4767615;30;20058;-77
2023/10/04 02:04:54;;;;;;;1.00;0.50;;;13.10;90.30;;;;;;4756762;29;20138;-77
2023/10/04 02:07:22;;;;;;;1.20;0.68;;;13.10;90.30;;;;;;4770202;30;20083;-77
2023/10/04 02:09:48;;;;;;;1.13;0.60;;;13.10;90.40;;;;;;4785059;30;20055;-76
2023/10/04 02:12:16;;;;;;;0.82;0.63;;;13.20;90.40;;;;;;4784885;29;20130;-76
2023/10/04 02:14:42;;;;;;;0.82;0.70;;;13.10;90.30;;;;;;4770169;30;20060;-77
2023/10/04 02:17:09;;;;;;;1.80;0.60;;;13.10;90.30;;;;;;4769769;30;20392;-77
2023/10/04 02:19:34;;;;;;;0.85;0.70;;;13.10;90.30;;;;;;4769941;30;20039;-76
2023/10/04 02:22:00;;;;;;;2.08;0.70;;;13.10;90.30;;;;;;4785161;29;20051;-77
2023/10/04 02:24:26;;;;;;;0.50;0.50;;;13.20;90.30;;;;;;4784808;29;20063;-77
2023/10/04 02:27:19;;;;;;;1.50;0.50;;;13.10;90.30;;;;;;4769750;29;20453;-76
2023/10/04 02:29:46;;;;;;;1.92;0.75;;;13.10;90.30;;;;;;4784676;30;20050;-76
2023/10/04 02:32:13;;;;;;;0.43;0.43;;;13.20;90.30;;;;;;4770543;30;20057;-77
2023/10/04 02:34:41;;;;;;;0.60;0.47;;;13.20;90.30;;;;;;4784736;29;20177;-77
2023/10/04 02:37:07;;;;;;;0.52;0.38;;;13.10;90.30;;;;;;4769922;29;20066;-76
2023/10/04 02:39:36;;;;;;;1.10;0.70;;;13.20;90.30;;;;;;4808230;29;20046;-77
2023/10/04 02:42:09;;;;;;;1.00;0.50;;;13.20;90.30;;;;;;4794958;29;20511;-77
2023/10/04 02:44:36;;;;;;;0.88;0.60;;;13.20;90.30;;;;;;4809380;29;20046;-77
2023/10/04 02:47:07;;;;;;;0.93;0.50;;;13.20;90.30;;;;;;4794026;29;20133;-77
2023/10/04 02:49:35;;;;;;;1.15;0.50;;;13.20;90.30;;;;;;4793460;29;20054;-77
2023/10/04 02:52:01;;;;;;;0.65;0.60;;;13.20;90.30;;;;;;4807666;29;20413;-76
2023/10/04 02:54:28;;;;;;;0.85;0.40;;;13.20;90.30;;;;;;4794735;29;20039;-77
2023/10/04 02:56:54;;;;;;;1.05;0.43;;;13.20;90.30;;;;;;4825824;29;20521;-76
2023/10/04 02:59:19;;;;;;;0.55;0.32;;;13.20;90.30;;;;;;4794369;29;20057;-77
2023/10/04 03:01:45;;;;;;;1.08;0.60;;;13.10;90.30;;;;;;4794160;29;20405;-77
2023/10/04 03:04:14;;;;;;;0.70;0.40;;;13.20;90.30;;;;;;4825614;29;20121;-77
2023/10/04 03:06:40;;;;;;;1.95;0.73;;;13.20;90.40;;;;;;4809784;29;20072;-77
2023/10/04 03:09:06;;;;;;;1.05;0.57;;;13.20;90.40;;;;;;4809492;29;20458;-77
2023/10/04 03:11:32;;;;;;;1.15;0.63;;;13.20;90.40;;;;;;4808780;29;20054;-77
2023/10/04 03:13:59;;;;;;;1.48;0.60;;;13.20;90.40;;;;;;4809440;29;20138;-76
2023/10/04 03:16:25;;;;;;;1.15;0.50;;;13.20;90.40;;;;;;4809066;29;20047;-77
2023/10/04 03:18:51;;;;;;;2.67;0.70;;;13.20;90.40;;;;;;4785903;29;20035;-76
2023/10/04 03:21:20;;;;;;;0.82;0.50;;;13.20;90.40;;;;;;4786797;29;20382;-76
2023/10/04 03:23:46;;;;;;;1.10;0.50;;;13.10;90.40;;;;;;4772584;29;20047;-77
2023/10/04 03:26:14;;;;;;;0.65;0.60;;;13.20;90.40;;;;;;4787023;29;20108;-78
2023/10/04 03:28:40;;;;;;;1.75;0.73;;;13.10;90.40;;;;;;4772688;29;20055;-77
2023/10/04 03:31:10;;;;;;;0.80;0.50;;;13.20;90.40;;;;;;4772055;29;20114;-77
2023/10/04 03:33:36;;;;;;;0.85;0.57;;;13.10;90.40;;;;;;4755555;29;20395;-77
2023/10/04 03:36:05;;;;;;;1.15;0.60;;;13.10;90.40;;;;;;4771881;29;20039;-76
2023/10/04 03:38:39;;;;;;;0.60;0.50;;;13.10;90.50;;;;;;4772197;29;20062;-79
2023/10/04 03:41:05;;;;;;;0.40;0.40;;;13.10;90.50;;;;;;4772463;29;20055;-77
2023/10/04 03:43:31;;;;;;;0.85;0.50;;;13.10;90.50;;;;;;4772169;29;20051;-77
2023/10/04 03:45:58;;;;;;;1.00;0.38;;;13.10;90.50;;;;;;4786935;29;20066;-77
2023/10/04 03:48:24;;;;;;;1.58;0.60;;;13.10;90.50;;;;;;4786555;29;20624;-76
2023/10/04 03:50:51;;;;;;;0.60;0.50;;;13.10;90.50;;;;;;4805132;29;20058;-78
2023/10/04 03:53:20;;;;;;;1.92;0.75;;;13.10;90.50;;;;;;4808491;29;20526;-77
2023/10/04 03:55:48;;;;;;;1.77;0.50;;;13.00;90.50;;;;;;4824825;29;20087;-76
2023/10/04 03:58:15;;;;;;;0.75;0.52;;;13.00;90.50;;;;;;4824834;29;20035;-77
2023/10/04 04:00:42;;;;;;;1.08;0.57;;;13.00;90.50;;;;;;4824060;29;20066;-77
2023/10/04 04:03:09;;;;;;;0.50;0.50;;;13.10;90.60;;;;;;4793596;29;20466;-77
2023/10/04 04:05:41;;;;;;;0.40;0.40;;;13.00;90.60;;;;;;4793746;29;20042;-77
2023/10/04 04:08:08;;;;;;;1.23;0.70;;;13.00;90.60;;;;;;4794043;29;20130;-76
2023/10/04 04:10:35;;;;;;;1.23;0.57;;;13.00;90.60;;;;;;4793272;29;20087;-77
2023/10/04 04:13:01;;;;;;;1.58;0.73;;;12.90;90.60;;;;;;4825244;29;20049;-77
2023/10/04 04:15:28;;;;;;;1.63;0.50;;;12.90;90.60;;;;;;4825183;29;20038;-77
2023/10/04 04:17:54;;;;;;;1.08;0.63;;;12.90;90.60;;;;;;4808538;29;20494;-77
2023/10/04 04:20:23;;;;;;;0.68;0.57;;;12.90;90.60;;;;;;4807852;29;20166;-76
2023/10/04 04:22:55;;;;;;;0.57;0.35;;;12.90;90.60;;;;;;4793242;29;20039;-76
2023/10/04 04:25:23;;;;;;;0.98;0.60;;;12.90;90.60;;;;;;4777782;29;20042;-77
2023/10/04 04:27:51;;;;;;;0.60;0.47;;;12.90;90.70;;;;;;4822863;29;20058;-76
2023/10/04 04:30:21;;;;;;;0.65;0.50;;;12.90;90.70;;;;;;4824829;29;20042;-78
2023/10/04 04:32:49;;;;;;;0.77;0.47;;;12.80;90.70;;;;;;4807763;29;20050;-77
2023/10/04 04:35:52;;;;;;;0.43;0.30;;;12.80;90.70;;;;;;4808184;29;20046;-76
2023/10/04 04:38:14;;;;;;;0.80;0.40;;;12.80;90.70;;;;;;4809635;29;20064;-77
2023/10/04 04:40:44;;;;;;;0.68;0.40;;;12.80;90.70;;;;;;4809161;29;20046;-77
2023/10/04 04:45:52;;;;;;;;;;;12.70;90.70;;;;;;4824924;29;20061;-76
2023/10/04 04:48:22;;;;;;;0.57;0.30;;;12.70;91.00;;;;;;4794768;29;20264;-78
2023/10/04 04:50:48;;;;;;;0.65;0.43;;;12.70;90.70;;;;;;4796749;29;20126;-77
2023/10/04 04:53:15;;;;;;;0.65;0.40;;;12.70;90.70;;;;;;4811894;29;20035;-78
2023/10/04 04:55:44;;;;;;;0.40;0.40;;;12.70;90.70;;;;;;4812201;29;20034;-77
2023/10/04 04:58:13;;;;;;;0.55;0.50;;;12.70;90.70;;;;;;4811420;29;20107;-78
2023/10/04 05:03:30;;;;;;;1.05;0.43;;;12.70;90.80;;;;;;4769453;30;20193;-77
2023/10/04 05:05:56;;;;;;;0.65;0.40;;;12.60;90.80;;;;;;4754542;30;20110;-77
2023/10/04 05:08:24;;;;;;;0.57;0.47;;;12.50;90.70;;;;;;4768555;30;20045;-77
2023/10/04 05:10:50;;;;;;;1.20;0.50;;;12.60;90.80;;;;;;4753442;30;20059;-77
2023/10/04 05:13:18;;;;;;;0.80;0.55;;;12.50;90.70;;;;;;4738848;30;20152;-77
2023/10/04 05:15:45;;;;;;;1.00;0.60;;;12.50;90.80;;;;;;4767912;30;20044;-77
2023/10/04 05:18:17;;;;;;;0.75;0.57;;;12.50;91.00;;;;;;4768093;30;20047;-79
2023/10/04 05:20:45;;;;;;;;;;;12.60;90.80;;;;;;4754514;30;20055;-78
2023/10/04 05:23:11;;;;;;;1.38;0.65;;;12.50;90.80;;;;;;4739329;30;20105;-77
2023/10/04 05:25:37;;;;;;;1.27;0.60;;;12.50;90.80;;;;;;4753506;30;20044;-77
2023/10/04 05:28:06;;;;;;;0.82;0.40;;;12.50;90.80;;;;;;4753703;30;20055;-77
2023/10/04 05:30:37;;;;;;;0.98;0.52;;;12.40;90.80;;;;;;4739995;30;20483;-77
2023/10/04 05:33:07;;;;;;;1.45;0.65;;;12.40;90.80;;;;;;4757908;29;20046;-77
2023/10/04 05:35:35;;;;;;;0.97;0.60;;;12.40;90.80;;;;;;4807674;29;20057;-75
2023/10/04 05:38:03;;;;;;;0.75;0.55;;;12.40;90.80;;;;;;4823653;29;20042;-77
2023/10/04 05:40:31;;;;;;;1.98;0.82;;;12.40;90.80;;;;;;4792941;29;20069;-78
2023/10/04 05:42:58;;;;;;;1.75;0.77;;;12.30;90.80;;;;;;4825113;29;20502;-75
2023/10/04 05:45:25;;;;;;;0.57;0.55;;;12.30;90.80;;;;;;4807654;29;20586;-75
2023/10/04 05:47:52;;;;;;;0.88;0.50;;;12.40;90.90;;;;;;4791953;29;20077;-75
2023/10/04 05:50:21;;;;;;;0.52;0.52;;;12.30;90.90;;;;;;4790242;29;20043;-75
2023/10/04 05:52:48;;;;;;;0.75;0.50;;;12.30;90.90;;;;;;4807582;29;20125;-76
2023/10/04 05:55:16;;;;;;;1.42;0.68;;;12.30;90.90;;;;;;4791881;29;20061;-75
2023/10/04 05:57:45;;;;;;;0.68;0.50;;;12.20;90.90;;;;;;4807272;29;20054;-75
2023/10/04 06:02:56;;;;;;;1.80;0.70;;;12.20;90.90;;;;;;4823245;29;20046;-75
2023/10/04 06:05:23;;;;;;;1.48;0.80;;;12.20;90.90;;;;;;4821710;29;20074;-74
2023/10/04 06:07:51;;;;;;;1.20;0.63;;;12.20;90.90;;;;;;4823343;29;20046;-73
2023/10/04 06:10:18;;;;;;;1.10;0.70;;;12.20;90.90;;;;;;4807436;29;20103;-74
2023/10/04 06:12:47;;;;;;;3.70;0.77;;;12.20;90.90;;;;;;4822833;29;20054;-74
2023/10/04 06:15:16;;;;;;;1.75;0.80;;;12.20;90.90;;;;;;4806496;29;20505;-74
2023/10/04 06:17:43;;;;;;;1.55;0.70;;;12.20;90.90;;;;;;4807060;29;20489;-75
2023/10/04 06:20:28;;;;;;;1.08;0.60;;;12.20;90.90;;;;;;4823249;29;20083;-74
2023/10/04 06:22:56;;;;;;;1.25;0.60;;;12.20;90.90;;;;;;4792585;29;20050;-74
2023/10/04 06:25:24;;;;;;;0.70;0.60;;;12.30;90.90;;;;;;4821415;29;20061;-74
2023/10/04 06:27:51;;;;;;;1.27;0.60;;;12.30;90.90;;;;;;4806847;29;20046;-73
2023/10/04 06:30:21;;;;;;;1.52;0.70;;;12.30;90.80;;;;;;4792191;29;20058;-77
2023/10/04 06:32:49;;;;;;;1.42;0.70;;;12.30;90.80;;;;;;4822778;29;20053;-74
2023/10/04 06:35:16;;;;;;;1.95;0.70;;;12.40;90.80;;;;;;4806731;29;20047;-75
2023/10/04 06:37:42;;;;;;;0.95;0.70;;;12.40;90.80;;;;;;4806662;29;20031;-75
2023/10/04 06:40:15;;;;;;;0.70;0.70;;;12.30;90.80;;;;;;4774800;29;20038;-75
2023/10/04 06:42:43;;;;;;;1.40;0.80;;;12.40;90.80;;;;;;4807502;29;20080;-76
2023/10/04 06:45:09;;;;;;;1.85;0.80;;;12.50;90.80;;;;;;4789972;29;20115;-75
2023/10/04 06:47:38;;;;;;;0.70;0.60;;;12.40;90.70;;;;;;4804605;29;20099;-76
2023/10/04 06:50:06;;;;;;;1.25;0.73;;;12.40;90.70;;;;;;4806690;29;20077;-75
2023/10/04 06:52:32;;;;;;;1.63;0.70;;;12.50;90.80;;;;;;4806796;29;20138;-78
2023/10/04 06:54:58;;;;;;;1.58;0.80;;;12.40;90.70;;;;;;4790933;29;20137;-75
2023/10/04 06:57:24;;;;;;;2.00;0.75;;;12.50;90.70;;;;;;4806497;29;20505;-75
2023/10/04 06:59:49;;;;;;;1.10;0.90;;;12.50;90.70;;;;;;4806398;29;20055;-75
2023/10/04 07:02:15;;;;;;;1.23;0.65;;;12.50;90.70;;;;;;4791190;29;20418;-76
2023/10/04 07:04:41;;;;;;;2.22;0.70;;;12.50;90.70;;;;;;4806167;29;20050;-75
2023/10/04 07:07:06;;;;;;;2.15;0.77;;;12.60;90.70;;;;;;4806302;29;20121;-75
2023/10/04 07:09:33;;;;;;;0.85;0.70;;;12.60;90.70;;;;;;4791097;29;20192;-76
2023/10/04 07:11:58;;;;;;;1.27;0.60;;;12.60;90.60;;;;;;4806572;29;20043;-76
2023/10/04 07:14:24;;;;;;;0.98;0.65;;;12.60;90.60;;;;;;4822784;29;20038;-75
2023/10/04 07:16:51;;;;;;;1.35;0.77;;;12.70;90.60;;;;;;4806275;29;20401;-76
2023/10/04 07:19:18;;;;;;;1.73;0.80;;;12.70;90.60;;;;;;4805983;29;20058;-76
2023/10/04 07:21:43;;;;;;;1.33;0.70;;;12.70;90.60;;;;;;4806246;29;20506;-77
2023/10/04 07:24:09;;;;;;;1.90;0.80;;;12.80;90.60;;;;;;4825094;29;20126;-75
2023/10/04 07:26:36;;;;;;;1.52;0.65;;;12.90;90.60;;;;;;4809893;29;20057;-74
2023/10/04 07:29:02;;;;;;;1.00;0.80;;;13.00;90.60;;;;;;4827411;29;20043;-75
2023/10/04 07:31:28;;;;;;;1.23;0.70;;;13.00;90.50;;;;;;4811624;29;20565;-75
2023/10/04 07:33:54;;;;;;;0.88;0.60;;;13.00;90.50;;;;;;4809838;29;20076;-75
2023/10/04 07:36:20;;;;;;;1.58;0.70;;;13.00;90.40;;;;;;4827331;29;20550;-75
2023/10/04 07:38:46;;;;;;;1.65;0.73;;;13.10;90.40;;;;;;4817269;29;20482;-74
2023/10/04 07:41:12;;;;;;;1.70;0.88;;;13.20;90.40;;;;;;4808555;29;20501;-76
2023/10/04 07:43:37;;;;;;;2.08;0.88;;;13.20;90.40;;;;;;4808559;29;20065;-74
2023/10/04 07:46:06;;;;;;;1.55;0.60;;;13.20;90.30;;;;;;4793782;29;20050;-74
2023/10/04 07:48:32;;;;;;;1.88;0.80;;;13.40;90.30;;;;;;4808823;29;20046;-75
2023/10/04 07:50:58;;;;;;;1.42;0.65;;;13.40;90.30;;;;;;4808389;29;20049;-74
2023/10/04 07:53:25;;;;;;;1.27;0.70;;;13.50;90.30;;;;;;4808565;29;20057;-75
2023/10/04 07:55:50;;;;;;;1.75;0.70;;;13.50;90.20;;;;;;4809311;29;20053;-74
2023/10/04 07:58:17;;;;;;;1.25;0.90;;;13.60;90.20;;;;;;4793858;29;20509;-74
2023/10/04 08:00:43;;;;;;;2.03;0.80;;;13.70;90.20;;;;;;4825511;29;20050;-75
2023/10/04 08:03:12;;;;;;;1.45;0.90;;;13.70;90.10;;;;;;4827348;29;20042;-74
2023/10/04 08:05:39;;;;;;;1.23;0.60;;;13.80;90.10;;;;;;4790722;29;20071;-75
2023/10/04 08:08:05;;;;;;;4.03;0.80;;;13.90;90.00;;;;;;4836200;29;20069;-75
2023/10/04 08:10:33;;;;;;;1.85;0.70;;;14.00;90.00;;;;;;4822938;29;20080;-75
2023/10/04 08:13:01;;;;;;;1.15;0.70;;;14.00;90.00;;;;;;4833397;29;20058;-76
2023/10/04 08:15:30;;;;;;;1.52;0.82;;;14.10;90.00;;;;;;4811658;29;20054;-75
2023/10/04 08:17:56;;;;;;;2.33;0.90;;;14.10;89.90;;;;;;4837309;29;20060;-75
2023/10/04 08:20:29;;;;;;;1.48;0.80;;;14.30;89.90;;;;;;4804402;29;20050;-75
2023/10/04 08:22:59;;;;;;;1.40;0.80;;;14.30;89.90;;;;;;4793119;29;20179;-77
2023/10/04 08:25:27;;;;;;;1.52;0.90;;;14.30;89.80;;;;;;4825286;29;20387;-76
2023/10/04 08:27:53;;;;;;;1.98;0.93;;;14.40;89.60;;;;;;4812352;29;20049;-76
2023/10/04 08:30:20;;;;;;;2.45;0.98;;;14.50;89.60;;;;;;4806279;29;20123;-76
2023/10/04 08:32:49;;;;;;;1.52;0.80;;;14.60;89.60;;;;;;4824558;29;20039;-76
2023/10/04 08:37:57;;;;;;;3.05;0.90;;;14.70;89.30;;;;;;4808448;29;20057;-76
2023/10/04 08:40:27;;;;;;;2.00;1.00;;;14.80;89.30;;;;;;4807020;29;20038;-75
2023/10/04 08:42:53;;;;;;;1.33;0.70;;;14.80;89.20;;;;;;4808549;29;20550;-75
2023/10/04 08:45:20;;;;;;;1.40;1.00;;;14.90;89.30;;;;;;4824739;29;20046;-74
2023/10/04 08:47:56;;;;;;;3.95;1.30;;;14.90;89.20;;;;;;4807815;29;20054;-74
2023/10/04 08:50:46;;;;;;;2.35;0.82;;;14.90;89.10;;;;;;4808220;29;20047;-74
2023/10/04 08:53:24;;;;;;;3.85;0.93;;;15.00;89.10;;;;;;4785693;29;20047;-74
2023/10/04 08:56:02;;;;;;;1.63;0.90;;;15.00;89.10;;;;;;4772147;30;20100;-75
2023/10/04 08:58:28;;;;;;;3.28;0.90;;;15.10;89.10;;;;;;4771740;29;20067;-75
2023/10/04 09:00:54;;;;;;;2.22;0.90;;;15.10;89.10;;;;;;4770877;29;20051;-75
2023/10/04 09:03:21;;;;;;;1.95;0.90;;;15.20;89.10;;;;;;4755965;30;20388;-77
2023/10/04 09:05:50;;;;;;;1.73;0.77;;;15.10;88.90;;;;;;4789644;29;20067;-74
2023/10/04 09:08:16;;;;;;;2.75;0.88;;;15.20;89.60;;;;;;4772934;30;20050;-75
2023/10/04 09:10:43;;;;;;;1.50;0.80;;;15.30;88.90;;;;;;4758251;30;20051;-75
2023/10/04 09:13:09;;;;;;;2.28;0.93;;;15.30;88.90;;;;;;4771872;30;20055;-75
2023/10/04 09:15:37;;;;;;;1.70;0.85;;;15.30;88.90;;;;;;4758512;30;20039;-75
2023/10/04 09:18:04;;;;;;;1.13;0.68;;;15.40;88.90;;;;;;4789426;29;20043;-75
2023/10/04 09:20:32;;;;;;;2.28;1.13;;;15.40;88.90;;;;;;4775881;30;20071;-75
2023/10/04 09:22:59;;;;;;;2.30;1.00;;;15.40;88.80;;;;;;4759866;29;20047;-76
2023/10/04 09:25:40;;;;;;;1.98;0.85;;;15.50;88.80;;;;;;4824372;29;20050;-74
2023/10/04 09:28:09;;;;;;;;;;;15.50;88.80;;;;;;4828006;29;20046;-75
2023/10/04 09:30:36;;;;;;;1.98;0.88;;;15.60;88.70;;;;;;4807610;29;20280;-75
2023/10/04 09:33:20;;;;;;;1.55;0.70;;;15.60;88.70;;;;;;4807685;29;20129;-75
2023/10/04 09:35:45;;;;;;;1.15;0.82;;;15.60;88.60;;;;;;4823819;29;20046;-75
2023/10/04 09:38:15;;;;;;;2.95;0.88;;;15.60;88.50;;;;;;4823809;29;20141;-75
2023/10/04 09:40:51;;;;;;;2.63;1.02;;;15.70;88.50;;;;;;4792403;29;20046;-76
2023/10/04 09:43:17;;;;;;;1.83;0.85;;;15.70;88.40;;;;;;4822464;29;20119;-77
2023/10/04 09:46:02;;;;;;;2.40;1.10;;;15.80;88.40;;;;;;4792447;29;20490;-78
2023/10/04 09:48:37;;;;;;;1.60;1.10;;;15.80;88.30;;;;;;4751806;30;20047;-77
2023/10/04 09:51:05;;;;;;;4.00;1.05;;;15.90;88.10;;;;;;4737772;30;20146;-76
2023/10/04 09:53:42;;;;;;;2.58;0.85;;;15.90;88.10;;;;;;4767481;30;20071;-76
2023/10/04 09:56:12;;;;;;;1.85;0.80;;;15.90;88.10;;;;;;4753343;30;20387;-75
2023/10/04 09:58:48;;;;;;;1.77;0.90;;;16.00;88.10;;;;;;4768434;30;20078;-75
2023/10/04 10:01:15;;;;;;;2.97;1.10;;;16.10;88.00;;;;;;4752745;30;20661;-75
2023/10/04 10:03:50;;;;;;;2.85;1.10;;;16.00;87.80;;;;;;4752071;30;20158;-76
2023/10/04 10:06:22;;;;;;;2.15;1.15;;;16.10;87.80;;;;;;4752758;30;20086;-76
2023/10/04 10:08:53;;;;;;;1.88;0.93;;;16.10;87.70;;;;;;4767447;30;20512;-75
2023/10/04 10:11:20;;;;;;;2.60;1.08;;;16.20;87.80;;;;;;4736394;30;20064;-75
2023/10/04 10:13:47;;;;;;;3.80;1.00;;;16.30;87.80;;;;;;4756149;30;20538;-75
2023/10/04 10:16:15;;;;;;;3.03;0.93;;;16.30;87.70;;;;;;4753617;30;20047;-75
2023/10/04 10:18:43;;;;;;;2.20;1.10;;;16.30;87.50;;;;;;4777781;29;20038;-74
2023/10/04 10:21:09;;;;;;;4.53;1.33;;;16.40;87.60;;;;;;4822791;29;20034;-75
2023/10/04 10:23:57;;;;;;;3.15;1.30;;;16.40;87.40;;;;;;4791394;29;20038;-75
2023/10/04 10:26:23;;;;;;;4.05;1.42;;;16.40;87.30;;;;;;4823210;29;20038;-74
2023/10/04 10:29:03;;;;;;;2.90;1.20;;;16.40;87.30;;;;;;4822994;29;20576;-74
2023/10/04 10:31:29;;;;;;;3.55;1.20;;;16.50;87.40;;;;;;4777071;29;20513;-75
2023/10/04 10:33:56;;;;;;;3.00;0.90;;;16.50;87.30;;;;;;4806460;29;20526;-74
2023/10/04 10:36:24;;;;;;;2.33;0.80;;;16.60;87.20;;;;;;4806901;29;20054;-75
2023/10/04 10:38:52;;;;;;;2.10;1.15;;;16.60;87.10;;;;;;4805313;29;20050;-75
2023/10/04 10:41:51;;;;;;;2.22;1.02;;;16.50;87.10;;;;;;4806296;29;20141;-75
2023/10/04 10:44:19;;;;;;;3.38;1.15;;;16.60;87.20;;;;;;4822363;29;20407;-75
2023/10/04 10:47:06;;;;;;;2.63;1.30;;;16.60;87.10;;;;;;4806060;29;20126;-76
2023/10/04 10:49:58;;;;;;;3.13;1.33;;;16.60;87.00;;;;;;4806429;29;20046;-76
2023/10/04 10:52:38;;;;;;;2.63;1.35;;;16.70;86.90;;;;;;4821562;29;20127;-75
2023/10/04 10:55:14;;;;;;;1.60;1.00;;;16.80;86.90;;;;;;4820902;29;20034;-75
2023/10/04 10:57:44;;;;;;;2.42;1.10;;;16.80;86.80;;;;;;4821440;29;20054;-75
2023/10/04 11:00:22;;;;;;;3.20;1.37;;;16.70;86.50;;;;;;4792773;29;20046;-76
2023/10/04 11:03:13;;;;;;;3.75;1.50;;;16.80;86.50;;;;;;4810303;29;20876;-74
2023/10/04 11:05:40;;;;;;;2.90;1.10;;;16.90;86.50;;;;;;4793325;29;20043;-75
2023/10/04 11:08:12;;;;;;;2.75;1.27;;;16.90;86.40;;;;;;4809638;29;20042;-75
2023/10/04 11:10:39;;;;;;;3.38;1.33;;;16.90;86.30;;;;;;4794442;29;20065;-75
2023/10/04 11:13:08;;;;;;;2.97;1.10;;;17.00;86.40;;;;;;4809515;29;20122;-76
2023/10/04 11:15:36;;;;;;;1.52;0.90;;;17.10;86.30;;;;;;4809629;29;20121;-78
2023/10/04 11:18:02;;;;;;;3.97;1.30;;;17.20;86.10;;;;;;4812604;29;20034;-77
2023/10/04 11:20:32;;;;;;;3.53;1.50;;;17.20;85.80;;;;;;4797002;29;20038;-76
2023/10/04 11:22:58;;;;;;;3.22;1.33;;;17.20;85.70;;;;;;4789790;29;20515;-76
2023/10/04 11:25:27;;;;;;;2.25;1.20;;;17.20;85.70;;;;;;4788338;29;20530;-78
2023/10/04 11:27:53;;;;;;;3.13;1.20;;;17.30;85.60;;;;;;4785762;29;20039;-77
2023/10/04 11:30:22;;;;;;;2.97;1.30;;;17.30;85.60;;;;;;4787613;29;20469;-75
2023/10/04 11:32:48;;;;;;;3.17;1.40;;;17.20;85.50;;;;;;4770684;30;20449;-76
2023/10/04 11:35:17;;;;;;;2.50;1.23;;;17.20;85.40;;;;;;4787790;29;20035;-76
2023/10/04 11:37:44;;;;;;;2.42;1.00;;;17.30;85.50;;;;;;4771930;29;20050;-77
2023/10/04 11:40:12;;;;;;;3.25;1.30;;;17.30;85.40;;;;;;4787184;29;20043;-78
2023/10/04 11:42:39;;;;;;;2.08;1.20;;;17.30;85.20;;;;;;4787075;29;20070;-78
2023/10/04 11:45:18;;;;;;;2.95;1.25;;;17.30;85.20;;;;;;4787453;29;20055;-79
2023/10/04 11:47:45;;;;;;;2.65;1.50;;;17.50;85.10;;;;;;4787131;29;20036;-77
2023/10/04 11:50:11;;;;;;;2.28;1.30;;;17.50;85.00;;;;;;4772103;30;20067;-76
2023/10/04 11:52:40;;;;;;;2.70;1.50;;;17.50;84.80;;;;;;4786695;29;20179;-77
2023/10/04 11:55:22;;;;;;;2.22;1.20;;;17.50;84.70;;;;;;4825163;29;20038;-78
2023/10/04 11:57:49;;;;;;;2.30;1.25;;;17.60;84.60;;;;;;4807050;29;20069;-78
2023/10/04 12:00:17;;;;;;;2.83;1.45;;;17.40;84.40;;;;;;4808909;29;20034;-77
2023/10/04 12:02:42;;;;;;;2.80;1.35;;;17.50;84.40;;;;;;4809373;29;20171;-77
2023/10/04 12:05:08;;;;;;;2.70;1.50;;;17.60;84.30;;;;;;4808996;29;20095;-77
2023/10/04 12:07:34;;;;;;;4.25;1.60;;;17.60;84.20;;;;;;4825960;29;20438;-78
2023/10/04 12:10:02;;;;;;;3.15;1.50;;;17.60;84.20;;;;;;4824994;29;20049;-79
2023/10/04 12:12:28;;;;;;;3.38;1.58;;;17.60;84.10;;;;;;4794318;29;20058;-79
2023/10/04 12:14:53;;;;;;;3.60;1.50;;;17.60;84.10;;;;;;4813045;29;20027;-77
2023/10/04 12:17:19;;;;;;;3.53;1.58;;;17.60;84.00;;;;;;4825364;29;20117;-77
2023/10/04 12:19:45;;;;;;;2.53;1.50;;;17.60;83.90;;;;;;4808609;29;20042;-80
2023/10/04 12:22:12;;;;;;;4.32;1.55;;;17.60;83.90;;;;;;4808285;29;20095;-77
2023/10/04 12:24:38;;;;;;;2.85;1.42;;;17.70;83.90;;;;;;4823222;29;20494;-77
2023/10/04 12:27:08;;;;;;;3.58;1.30;;;17.60;83.80;;;;;;4808091;29;20081;-78
2023/10/04 12:29:36;;;;;;;3.15;1.50;;;17.60;83.80;;;;;;4793420;29;20473;-77
2023/10/04 12:32:02;;;;;;;3.30;1.48;;;17.60;83.70;;;;;;4809162;29;20050;-79
2023/10/04 12:34:29;;;;;;;4.35;1.70;;;17.60;83.50;;;;;;4808319;29;20043;-78
2023/10/04 12:36:56;;;;;;;3.80;1.40;;;17.60;83.50;;;;;;4824706;29;20041;-79
2023/10/04 12:39:23;;;;;;;2.97;1.52;;;17.60;83.40;;;;;;4808847;29;20099;-78
2023/10/04 12:41:49;;;;;;;2.60;1.33;;;17.60;83.30;;;;;;4824572;29;20038;-77
2023/10/04 12:44:18;;;;;;;2.95;1.40;;;17.60;83.30;;;;;;4825073;29;20050;-78
2023/10/04 12:46:45;;;;;;;3.65;1.63;;;17.60;83.40;;;;;;4824518;29;20061;-78
2023/10/04 12:49:11;;;;;;;3.60;1.50;;;17.50;83.30;;;;;;4826412;29;20083;-77
2023/10/04 12:51:37;;;;;;;2.67;1.40;;;17.60;83.30;;;;;;4811392;29;20054;-77
2023/10/04 12:54:08;;;;;;;2.40;1.23;;;17.60;83.20;;;;;;4810013;29;20836;-78
2023/10/04 12:56:36;;;;;;;2.50;1.23;;;17.50;83.20;;;;;;4823437;29;20045;-77
2023/10/04 12:59:10;;;;;;;3.58;1.45;;;17.50;83.00;;;;;;4808240;29;20149;-79
2023/10/04 13:01:36;;;;;;;4.15;1.30;;;17.60;83.10;;;;;;4793016;29;20050;-79
2023/10/04 13:04:12;;;;;;;2.28;1.40;;;17.60;83.10;;;;;;4796320;29;20046;-80
2023/10/04 13:06:38;;;;;;;2.13;1.15;;;17.60;83.00;;;;;;4813100;29;20046;-79
2023/10/04 13:09:04;;;;;;;3.00;1.20;;;17.60;82.90;;;;;;4793900;29;20042;-77
2023/10/04 13:11:40;;;;;;;2.95;1.30;;;17.60;83.00;;;;;;4826377;29;20050;-80
2023/10/04 13:14:11;;;;;;;1.90;1.23;;;17.60;82.90;;;;;;4758648;30;20043;-80
2023/10/04 13:16:36;;;;;;;2.28;1.15;;;17.50;82.90;;;;;;4727052;30;20041;-79